createdAt,value
2018-12-02T00:01:22.315Z,96650.72
2018-12-02T00:06:16.826Z,96647.30
2018-12-02T00:11:11.394Z,96640.44
2018-12-02T00:16:06.340Z,96632.59
2018-12-02T00:21:00.876Z,96616.57
2018-12-02T00:25:55.588Z,96613.36
2018-12-02T00:30:50.146Z,96601.42
2018-12-02T00:35:44.795Z,96601.51
2018-12-02T00:40:39.423Z,96589.66
2018-12-02T00:45:35.508Z,96587.27
2018-12-02T00:50:30.090Z,96589.48
2018-12-02T00:55:30.571Z,96586.57
2018-12-02T01:00:25.213Z,96583.75
2018-12-02T01:05:22.247Z,96587.23
2018-12-02T01:10:19.107Z,96576.31
2018-12-02T01:15:16.426Z,96587.80
2018-12-02T01:20:15.943Z,96582.14
2018-12-02T01:25:12.013Z,96577.77
2018-12-02T01:30:17.761Z,96577.28
2018-12-02T01:35:12.886Z,96567.24
2018-12-02T01:40:12.324Z,96560.42
2018-12-02T01:45:11.140Z,96562.63
2018-12-02T01:50:09.476Z,96554.38
2018-12-02T01:55:04.531Z,96546.69
2018-12-02T01:59:59.287Z,96548.90
2018-12-02T02:04:53.930Z,96544.47
2018-12-02T02:09:48.455Z,96549.45
2018-12-02T02:14:43.206Z,96543.06
2018-12-02T02:19:37.773Z,96533.53
2018-12-02T02:24:32.462Z,96532.56
2018-12-02T02:29:26.994Z,96528.16
2018-12-02T02:34:21.620Z,96528.38
2018-12-02T02:39:16.195Z,96532.39
2018-12-02T02:44:10.785Z,96525.83
2018-12-02T02:49:05.719Z,96518.75
2018-12-02T02:54:00.211Z,96507.23
2018-12-02T02:58:54.770Z,96498.71
2018-12-02T03:03:49.291Z,96494.16
2018-12-02T03:08:44.279Z,96488.59
2018-12-02T03:13:38.858Z,96478.64
2018-12-02T03:18:33.361Z,96470.16
2018-12-02T03:23:27.894Z,96453.84
2018-12-02T03:28:22.326Z,96449.83
2018-12-02T03:33:16.809Z,96441.34
2018-12-02T03:38:11.312Z,96437.70
2018-12-02T03:43:05.861Z,96439.31
2018-12-02T03:48:00.528Z,96431.80
2018-12-02T03:52:54.973Z,96417.31
2018-12-02T03:57:49.495Z,96417.19
2018-12-02T04:02:44.200Z,96419.09
2018-12-02T04:07:38.738Z,96418.66
2018-12-02T04:12:33.283Z,96415.00
2018-12-02T04:17:27.773Z,96409.93
2018-12-02T04:22:22.246Z,96394.92
2018-12-02T04:27:16.713Z,96399.70
2018-12-02T04:32:11.222Z,96394.59
2018-12-02T04:37:05.777Z,96387.00
2018-12-02T04:42:00.246Z,96388.37
2018-12-02T04:46:54.707Z,96382.30
2018-12-02T04:51:49.198Z,96375.17
2018-12-02T04:56:43.836Z,96374.05
2018-12-02T05:01:38.306Z,96384.14
2018-12-02T05:06:33.101Z,96389.61
2018-12-02T05:11:27.570Z,96392.34
2018-12-02T05:16:22.038Z,96383.73
2018-12-02T05:21:16.526Z,96396.32
2018-12-02T05:26:11.008Z,96393.92
2018-12-02T05:31:06.079Z,96395.58
2018-12-02T05:36:00.595Z,96381.67
2018-12-02T05:40:55.402Z,96371.00
2018-12-02T05:45:49.971Z,96370.35
2018-12-02T05:50:44.507Z,96379.34
2018-12-02T05:55:39.161Z,96359.97
2018-12-02T06:00:33.670Z,96345.34
2018-12-02T06:05:28.172Z,96339.11
2018-12-02T06:10:23.794Z,96338.61
2018-12-02T06:15:19.774Z,96338.62
2018-12-02T06:20:19.810Z,96351.03
2018-12-02T06:25:14.424Z,96349.50
2018-12-02T06:30:21.193Z,96334.28
2018-12-02T06:35:16.901Z,96349.30
2018-12-02T06:40:21.729Z,96355.80
2018-12-02T06:45:16.274Z,96363.58
2018-12-02T06:50:27.862Z,96363.58
2018-12-02T06:55:40.058Z,96332.45
2018-12-02T07:13:39.515Z,96326.04
2018-12-02T07:18:40.014Z,96363.45
2018-12-02T07:23:43.342Z,96364.33
2018-12-02T07:28:38.089Z,96362.59
2018-12-02T07:33:32.762Z,96341.07
2018-12-02T07:38:55.846Z,96351.94
2018-12-02T07:43:50.390Z,96360.66
2018-12-02T07:48:44.919Z,96347.15
2018-12-02T07:53:39.415Z,96356.36
2018-12-02T07:58:33.952Z,96357.86
2018-12-02T08:03:28.442Z,96349.27
2018-12-02T08:08:22.956Z,96346.75
2018-12-02T08:13:17.587Z,96343.78
2018-12-02T08:18:12.117Z,96356.27
2018-12-02T08:23:07.565Z,96352.89
2018-12-02T08:28:02.374Z,96339.09
2018-12-02T08:32:57.390Z,96346.45
2018-12-02T08:37:55.275Z,96358.48
2018-12-02T08:42:49.838Z,96369.82
2018-12-02T08:47:45.057Z,96378.77
2018-12-02T08:52:39.719Z,96390.86
2018-12-02T08:57:34.652Z,96389.78
2018-12-02T09:02:29.126Z,96384.42
2018-12-02T09:07:23.587Z,96396.19
2018-12-02T09:12:18.148Z,96394.94
2018-12-02T09:17:12.718Z,96392.84
2018-12-02T09:22:07.540Z,96410.72
2018-12-02T09:27:02.174Z,96443.95
2018-12-02T09:31:56.727Z,96463.75
2018-12-02T09:36:51.615Z,96446.11
2018-12-02T09:41:46.435Z,96443.89
2018-12-02T09:46:41.116Z,96448.80
2018-12-02T09:51:36.180Z,96435.91
2018-12-02T09:56:30.928Z,96411.55
2018-12-02T10:01:25.473Z,96403.27
2018-12-02T10:06:20.868Z,96384.48
2018-12-02T10:11:17.123Z,96356.85
2018-12-02T10:16:15.673Z,96358.07
2018-12-02T10:21:07.107Z,96379.39
2018-12-02T10:26:01.572Z,96361.04
2018-12-02T10:30:56.054Z,96354.47
2018-12-02T10:35:50.625Z,96380.72
2018-12-02T10:40:45.543Z,96390.64
2018-12-02T10:45:40.139Z,96379.27
2018-12-02T10:50:36.429Z,96385.28
2018-12-02T10:55:52.226Z,96378.75
2018-12-02T11:00:52.340Z,96377.27
2018-12-02T11:05:47.179Z,96386.48
2018-12-02T11:10:42.285Z,96385.33
2018-12-02T11:15:37.454Z,96374.08
2018-12-02T11:20:32.115Z,96379.59
2018-12-02T11:25:26.951Z,96371.61
2018-12-02T11:30:21.694Z,96368.93
2018-12-02T11:35:18.871Z,96378.34
2018-12-02T11:40:19.592Z,96373.41
2018-12-02T11:45:16.902Z,96363.88
2018-12-02T11:50:19.017Z,96368.67
2018-12-02T11:55:17.395Z,96356.68
2018-12-02T12:00:32.403Z,96343.80
2018-12-02T12:05:27.626Z,96341.23
2018-12-02T12:10:28.352Z,96333.20
2018-12-02T12:15:25.023Z,96303.83
2018-12-02T12:20:28.293Z,96307.26
2018-12-02T12:25:23.187Z,96309.08
2018-12-02T12:30:21.370Z,96309.78
2018-12-02T12:35:18.304Z,96313.17
2018-12-02T12:40:20.987Z,96317.52
2018-12-02T12:45:15.971Z,96311.02
2018-12-02T12:50:13.121Z,96307.21
2018-12-02T12:55:16.567Z,96306.65
2018-12-02T13:00:18.747Z,96318.81
2018-12-02T13:05:17.867Z,96314.16
2018-12-02T13:10:14.464Z,96321.84
2018-12-02T13:15:14.777Z,96310.90
2018-12-02T13:20:14.226Z,96311.19
2018-12-02T13:25:11.350Z,96314.67
2018-12-02T13:30:14.718Z,96303.86
2018-12-02T13:35:10.778Z,96313.75
2018-12-02T13:40:10.801Z,96308.81
2018-12-02T13:45:06.914Z,96307.21
2018-12-02T13:50:01.711Z,96311.05
2018-12-02T13:54:56.634Z,96319.44
2018-12-02T13:59:51.309Z,96322.50
2018-12-02T14:04:45.966Z,96323.70
2018-12-02T14:09:40.659Z,96318.91
2018-12-02T14:14:40.723Z,96324.73
2018-12-02T14:19:35.623Z,96324.77
2018-12-02T14:24:30.212Z,96332.69
2018-12-02T14:29:31.086Z,96325.45
2018-12-02T14:34:25.832Z,96337.38
2018-12-02T14:39:21.140Z,96333.16
2018-12-02T14:44:15.704Z,96320.22
2018-12-02T14:49:10.359Z,96339.23
2018-12-02T14:54:05.026Z,96341.36
2018-12-02T14:59:00.426Z,96350.23
2018-12-02T15:03:55.205Z,96348.50
2018-12-02T15:08:51.820Z,96351.23
2018-12-02T15:13:46.362Z,96353.19
2018-12-02T15:18:41.039Z,96366.23
2018-12-02T15:23:35.779Z,96357.22
2018-12-02T15:28:30.416Z,96366.78
2018-12-02T15:33:24.948Z,96365.37
2018-12-02T15:38:19.528Z,96373.96
2018-12-02T15:43:14.126Z,96376.58
2018-12-02T15:48:09.066Z,96363.19
2018-12-02T15:53:04.030Z,96358.96
2018-12-02T15:57:59.768Z,96360.50
2018-12-02T16:02:54.385Z,96367.98
2018-12-02T16:07:48.992Z,96374.15
2018-12-02T16:12:46.439Z,96364.83
2018-12-02T16:17:41.095Z,96377.30
2018-12-02T16:22:35.820Z,96373.37
2018-12-02T16:27:31.219Z,96380.78
2018-12-02T16:32:26.047Z,96389.19
2018-12-02T16:37:20.555Z,96385.66
2018-12-02T16:42:15.111Z,96379.28
2018-12-02T16:47:09.672Z,96385.70
2018-12-02T16:52:04.299Z,96394.28
2018-12-02T16:57:00.082Z,96388.75
2018-12-02T17:01:58.683Z,96384.81
2018-12-02T17:06:54.951Z,96389.14
2018-12-02T17:11:49.536Z,96380.94
2018-12-02T17:16:44.142Z,96385.89
2018-12-02T17:21:38.867Z,96385.73
2018-12-02T17:26:33.418Z,96395.19
2018-12-02T17:31:35.903Z,96397.28
2018-12-02T17:36:31.826Z,96397.38
2018-12-02T17:41:25.158Z,96400.48
2018-12-02T17:46:19.720Z,96386.65
2018-12-02T17:51:14.258Z,96363.62
2018-12-02T17:56:08.835Z,96376.52
2018-12-02T18:01:03.577Z,96386.08
2018-12-02T18:05:58.509Z,96381.37
2018-12-02T18:10:53.544Z,96382.40
2018-12-02T18:15:48.311Z,96376.67
2018-12-02T18:20:43.587Z,96366.91
2018-12-02T18:25:38.270Z,96381.66
2018-12-02T18:30:32.978Z,96368.23
2018-12-02T18:35:52.055Z,96363.13
2018-12-02T18:41:13.438Z,96375.41
2018-12-02T18:46:08.588Z,96372.84
2018-12-02T18:51:03.905Z,96362.98
2018-12-02T18:55:58.724Z,96368.12
2018-12-02T19:00:54.155Z,96368.23
2018-12-02T19:05:50.723Z,96368.56
2018-12-02T19:10:48.622Z,96360.56
2018-12-02T19:15:43.424Z,96356.27
2018-12-02T19:20:38.120Z,96358.82
2018-12-02T19:25:33.793Z,96357.10
2018-12-02T19:30:33.045Z,96367.13
2018-12-02T19:35:34.974Z,96365.22
2018-12-02T19:40:29.841Z,96363.13
2018-12-02T19:45:24.819Z,96363.33
2018-12-02T19:50:20.504Z,96363.94
2018-12-02T19:55:15.189Z,96363.11
2018-12-02T20:00:19.334Z,96349.68
2018-12-02T20:05:13.985Z,96353.64
2018-12-02T20:10:20.145Z,96357.92
2018-12-02T20:15:16.423Z,96355.86
2018-12-02T20:20:20.385Z,96358.13
2018-12-02T20:25:15.407Z,96371.05
2018-12-02T20:30:15.435Z,96370.56
2018-12-02T20:35:11.834Z,96365.36
2018-12-02T20:40:12.186Z,96368.66
2018-12-02T20:45:09.391Z,96365.92
2018-12-02T20:50:04.172Z,96377.34
2018-12-02T20:54:58.840Z,96361.20
2018-12-02T20:59:53.409Z,96358.48
2018-12-02T21:04:48.021Z,96358.37
2018-12-02T21:09:42.953Z,96354.55
2018-12-02T21:14:37.595Z,96356.20
2018-12-02T21:19:35.062Z,96352.56
2018-12-02T21:24:30.071Z,96348.62
2018-12-02T21:29:26.120Z,96356.05
2018-12-02T21:34:20.992Z,96361.20
2018-12-02T21:39:16.316Z,96360.94
2018-12-02T21:44:11.066Z,96347.63
2018-12-02T21:49:06.562Z,96354.17
2018-12-02T21:54:01.702Z,96349.55
2018-12-02T21:58:56.507Z,96350.92
2018-12-02T22:03:51.250Z,96356.61
2018-12-02T22:08:46.080Z,96351.02
2018-12-02T22:13:43.619Z,96346.88
2018-12-02T22:18:36.469Z,96340.91
2018-12-02T22:23:32.108Z,96337.05
2018-12-02T22:28:27.461Z,96333.83
2018-12-02T22:33:23.343Z,96326.30
2018-12-02T22:38:19.055Z,96316.21
2018-12-02T22:43:14.940Z,96321.41
2018-12-02T22:48:11.017Z,96314.73
2018-12-02T22:53:09.380Z,96306.34
2018-12-02T22:58:04.941Z,96300.07
2018-12-02T23:03:06.719Z,96294.17
2018-12-02T23:08:02.882Z,96291.75
2018-12-02T23:12:58.173Z,96285.41
2018-12-02T23:17:53.307Z,96284.09
2018-12-02T23:22:48.348Z,96293.56
2018-12-02T23:27:43.512Z,96294.46
2018-12-02T23:32:40.351Z,96287.42
2018-12-02T23:37:35.407Z,96295.66
2018-12-02T23:42:30.728Z,96297.86
2018-12-02T23:47:25.728Z,96303.15
2018-12-02T23:52:20.655Z,96298.84
2018-12-02T23:57:18.479Z,96301.27
